createdAt,value
2023-04-28T00:01:06.944Z,8.23
2023-04-28T00:03:35.145Z,8.00
2023-04-28T00:06:04.394Z,7.67
2023-04-28T00:08:32.486Z,9.53
2023-04-28T00:11:00.933Z,7.80
2023-04-28T00:13:29.053Z,6.10
2023-04-28T00:15:57.324Z,6.27
2023-04-28T00:18:29.242Z,7.80
2023-04-28T00:20:57.650Z,8.83
2023-04-28T00:23:25.794Z,7.17
2023-04-28T00:25:54.370Z,8.07
2023-04-28T00:28:33.663Z,9.27
2023-04-28T00:31:03.014Z,6.57
2023-04-28T00:33:32.799Z,6.67
2023-04-28T00:36:01.990Z,8.10
2023-04-28T00:38:30.809Z,5.40
2023-04-28T00:40:59.041Z,8.20
2023-04-28T00:43:27.107Z,7.20
2023-04-28T00:45:55.256Z,9.07
2023-04-28T00:48:24.406Z,8.47
2023-04-28T00:50:54.433Z,9.83
2023-04-28T00:53:22.984Z,8.23
2023-04-28T00:55:53.878Z,8.47
2023-04-28T00:58:22.084Z,8.40
2023-04-28T01:00:50.320Z,8.37
2023-04-28T01:03:18.478Z,9.23
2023-04-28T01:05:47.086Z,11.60
2023-04-28T01:08:17.282Z,10.17
2023-04-28T01:10:45.592Z,10.03
2023-04-28T01:13:13.859Z,10.80
2023-04-28T01:15:42.378Z,7.87
2023-04-28T01:18:10.859Z,6.87
2023-04-28T01:20:40.787Z,9.40
2023-04-28T01:23:13.895Z,6.43
2023-04-28T01:25:45.008Z,7.33
2023-04-28T01:28:13.543Z,6.40
2023-04-28T01:30:41.662Z,9.10
2023-04-28T01:33:09.790Z,8.33
2023-04-28T01:35:37.929Z,10.60
2023-04-28T01:38:06.234Z,8.27
2023-04-28T01:40:34.347Z,8.27
2023-04-28T01:43:03.892Z,10.23
2023-04-28T01:45:31.895Z,9.47
2023-04-28T01:48:00.024Z,9.33
2023-04-28T01:50:28.075Z,11.83
2023-04-28T01:52:56.180Z,7.63
2023-04-28T01:55:24.369Z,7.00
2023-04-28T01:57:52.724Z,9.33
2023-04-28T02:00:22.895Z,6.83
2023-04-28T02:02:51.597Z,7.37
2023-04-28T02:05:20.192Z,6.67
2023-04-28T02:07:48.703Z,7.23
2023-04-28T02:10:17.004Z,7.17
2023-04-28T02:12:44.969Z,9.17
2023-04-28T02:15:12.978Z,11.93
2023-04-28T02:17:42.801Z,10.87
2023-04-28T02:20:14.475Z,7.53
2023-04-28T02:22:42.711Z,8.87
2023-04-28T02:25:11.093Z,7.90
2023-04-28T02:27:39.529Z,8.77
2023-04-28T02:30:08.793Z,7.87
2023-04-28T02:32:37.186Z,6.90
2023-04-28T02:35:08.058Z,11.20
2023-04-28T02:37:36.450Z,7.23
2023-04-28T02:40:04.736Z,7.03
2023-04-28T02:42:33.000Z,8.27
2023-04-28T02:45:01.110Z,7.17
2023-04-28T02:47:29.222Z,9.53
2023-04-28T02:49:57.624Z,9.77
2023-04-28T02:52:27.106Z,7.97
2023-04-28T02:54:57.717Z,7.03
2023-04-28T02:57:26.354Z,8.70
2023-04-28T02:59:54.384Z,10.77
2023-04-28T03:02:23.311Z,9.13
2023-04-28T03:04:51.724Z,9.17
2023-04-28T03:07:20.010Z,10.27
2023-04-28T03:09:49.939Z,9.30
2023-04-28T03:12:17.958Z,7.90
2023-04-28T03:14:46.615Z,11.87
2023-04-28T03:17:15.510Z,7.20
2023-04-28T03:19:43.547Z,10.13
2023-04-28T03:22:12.026Z,10.00
2023-04-28T03:24:40.168Z,9.57
2023-04-28T03:27:09.649Z,10.00
2023-04-28T03:29:38.729Z,6.50
2023-04-28T03:32:07.951Z,8.93
2023-04-28T03:34:36.220Z,9.93
2023-04-28T03:37:04.416Z,8.87
2023-04-28T03:39:32.690Z,10.87
2023-04-28T03:42:01.239Z,9.83
2023-04-28T03:44:30.825Z,8.67
2023-04-28T03:46:58.953Z,10.87
2023-04-28T03:49:27.706Z,10.07
2023-04-28T03:51:55.681Z,10.97
2023-04-28T03:54:23.904Z,12.07
2023-04-28T03:56:51.935Z,14.63
2023-04-28T03:59:19.976Z,9.63
2023-04-28T04:01:49.684Z,10.17
2023-04-28T04:04:18.451Z,13.03
2023-04-28T04:06:46.973Z,11.40
2023-04-28T04:09:15.494Z,11.10
2023-04-28T04:11:43.698Z,10.83
2023-04-28T04:14:12.085Z,12.33
2023-04-28T04:16:40.523Z,13.20
2023-04-28T04:19:09.896Z,13.30
2023-04-28T04:21:37.940Z,15.70
2023-04-28T04:24:06.421Z,12.37
2023-04-28T04:26:34.453Z,12.27
2023-04-28T04:29:02.550Z,9.57
2023-04-28T04:31:32.040Z,11.63
2023-04-28T04:34:00.146Z,9.23
2023-04-28T04:36:29.806Z,12.27
2023-04-28T04:38:58.110Z,9.23
2023-04-28T04:41:27.322Z,11.63
2023-04-28T04:43:55.673Z,8.57
2023-04-28T04:46:24.268Z,10.23
2023-04-28T04:48:52.416Z,11.13
2023-04-28T04:51:20.787Z,11.47
2023-04-28T04:53:50.332Z,8.97
2023-04-28T04:56:18.656Z,11.63
2023-04-28T04:58:46.879Z,11.70
2023-04-28T05:01:15.617Z,10.03
2023-04-28T05:03:44.905Z,15.10
2023-04-28T05:06:13.548Z,13.17
2023-04-28T05:08:42.031Z,9.53
2023-04-28T05:11:11.934Z,9.60
2023-04-28T05:13:40.913Z,12.37
2023-04-28T05:16:09.432Z,9.67
2023-04-28T05:18:37.637Z,9.67
2023-04-28T05:21:06.437Z,10.80
2023-04-28T05:23:34.548Z,12.03
2023-04-28T05:26:04.289Z,14.57
2023-04-28T05:28:35.581Z,11.27
2023-04-28T05:31:03.850Z,15.33
2023-04-28T05:33:32.099Z,13.20
2023-04-28T05:36:00.966Z,11.90
2023-04-28T05:38:29.329Z,12.23
2023-04-28T05:40:57.925Z,11.87
2023-04-28T05:43:25.943Z,12.77
2023-04-28T05:45:55.752Z,14.23
2023-04-28T05:48:24.120Z,14.17
2023-04-28T05:50:53.333Z,11.97
2023-04-28T05:53:21.718Z,13.23
2023-04-28T05:55:49.838Z,13.67
2023-04-28T05:58:18.024Z,12.10
2023-04-28T06:00:46.092Z,15.87
2023-04-28T06:03:19.188Z,11.67
2023-04-28T06:05:47.771Z,11.87
2023-04-28T06:08:16.323Z,15.33
2023-04-28T06:10:44.673Z,11.30
2023-04-28T06:13:14.625Z,16.50
2023-04-28T06:15:43.169Z,10.83
2023-04-28T06:18:11.589Z,11.63
2023-04-28T06:20:41.153Z,14.97
2023-04-28T06:23:09.526Z,14.33
2023-04-28T06:25:38.131Z,15.07
2023-04-28T06:28:07.705Z,11.77
2023-04-28T06:30:36.969Z,11.47
2023-04-28T06:33:05.561Z,12.47
2023-04-28T06:35:35.934Z,12.93
2023-04-28T06:38:06.149Z,11.50
2023-04-28T06:40:34.396Z,12.23
2023-04-28T06:43:03.072Z,12.47
2023-04-28T06:45:31.279Z,13.63
2023-04-28T06:47:59.452Z,13.53
2023-04-28T06:50:27.509Z,11.87
2023-04-28T06:52:55.517Z,13.57
2023-04-28T06:55:25.059Z,15.53
2023-04-28T06:57:53.378Z,12.43
2023-04-28T07:00:21.690Z,12.00
2023-04-28T07:02:49.938Z,16.67
2023-04-28T07:05:18.400Z,16.10
2023-04-28T07:07:48.880Z,16.10
2023-04-28T07:10:17.096Z,12.60
2023-04-28T07:12:46.841Z,12.63
2023-04-28T07:15:14.974Z,13.57
2023-04-28T07:17:43.264Z,14.90
2023-04-28T07:20:11.801Z,13.27
2023-04-28T07:22:40.140Z,14.17
2023-04-28T07:25:09.992Z,12.87
2023-04-28T07:27:38.095Z,16.13
2023-04-28T07:30:25.861Z,14.33
2023-04-28T07:32:55.791Z,16.50
2023-04-28T07:35:24.450Z,12.90
2023-04-28T07:37:53.115Z,14.97
2023-04-28T07:40:21.989Z,14.63
2023-04-28T07:42:49.986Z,16.50
2023-04-28T07:45:19.551Z,15.30
2023-04-28T07:47:47.965Z,13.50
2023-04-28T07:50:16.356Z,15.47
2023-04-28T07:52:44.786Z,13.73
2023-04-28T07:55:13.124Z,12.67
2023-04-28T07:57:42.502Z,14.53
2023-04-28T08:00:12.239Z,13.40
2023-04-28T08:02:42.167Z,14.83
2023-04-28T08:05:11.477Z,15.70
2023-04-28T08:07:40.134Z,14.73
2023-04-28T08:10:10.368Z,15.00
2023-04-28T08:12:38.794Z,12.50
2023-04-28T08:15:07.884Z,13.93
2023-04-28T08:17:36.081Z,16.33
2023-04-28T08:20:12.765Z,12.30
2023-04-28T08:22:40.864Z,13.67
2023-04-28T08:25:10.939Z,13.30
2023-04-28T08:27:40.150Z,13.43
2023-04-28T08:30:11.277Z,16.20
2023-04-28T08:32:39.719Z,13.70
2023-04-28T08:35:11.022Z,12.93
2023-04-28T08:37:39.466Z,13.53
2023-04-28T08:40:11.013Z,13.53
2023-04-28T08:42:39.893Z,15.37
2023-04-28T08:45:09.662Z,13.07
2023-04-28T08:47:39.764Z,14.20
2023-04-28T08:50:12.534Z,13.90
2023-04-28T08:52:41.792Z,11.73
2023-04-28T08:55:13.157Z,11.10
2023-04-28T08:57:45.505Z,11.80
2023-04-28T09:00:14.374Z,11.53
2023-04-28T09:02:43.218Z,11.27
2023-04-28T09:05:14.576Z,12.80
2023-04-28T09:07:42.976Z,13.17
2023-04-28T09:10:19.156Z,11.73
2023-04-28T09:12:48.181Z,12.83
2023-04-28T09:15:34.673Z,12.13
2023-04-28T09:18:04.147Z,12.50
2023-04-28T09:20:35.376Z,10.40
2023-04-28T09:23:17.754Z,16.23
2023-04-28T09:26:02.312Z,10.50
2023-04-28T09:28:30.716Z,11.23
2023-04-28T09:30:59.225Z,11.30
2023-04-28T09:33:27.970Z,13.73
2023-04-28T09:35:57.812Z,12.20
2023-04-28T09:38:26.591Z,11.00
2023-04-28T09:40:58.654Z,11.37
2023-04-28T09:43:28.481Z,12.37
2023-04-28T09:45:57.407Z,12.60
2023-04-28T09:48:31.016Z,11.57
2023-04-28T09:51:01.194Z,12.73
2023-04-28T09:53:30.584Z,16.37
2023-04-28T09:56:00.979Z,14.13
2023-04-28T09:58:30.294Z,13.73
2023-04-28T10:00:59.717Z,14.83
2023-04-28T10:03:30.244Z,12.90
2023-04-28T10:06:00.621Z,14.27
2023-04-28T10:08:29.794Z,13.63
2023-04-28T10:10:58.711Z,14.80
2023-04-28T10:13:27.082Z,15.40
2023-04-28T10:15:58.208Z,16.57
2023-04-28T10:18:27.637Z,14.60
2023-04-28T10:21:03.289Z,15.67
2023-04-28T10:23:53.085Z,14.20
2023-04-28T10:26:22.131Z,16.70
2023-04-28T10:28:51.458Z,15.27
2023-04-28T10:31:22.915Z,16.67
2023-04-28T10:33:51.465Z,16.30
2023-04-28T10:36:52.978Z,18.40
2023-04-28T10:39:23.622Z,18.50
2023-04-28T10:41:51.851Z,17.33
2023-04-28T10:44:45.196Z,14.70
2023-04-28T10:47:15.087Z,16.67
2023-04-28T10:50:11.640Z,18.33
2023-04-28T10:52:54.084Z,15.57
2023-04-28T10:55:33.114Z,15.70
2023-04-28T10:58:34.452Z,17.23
2023-04-28T11:01:28.563Z,17.93
2023-04-28T11:04:03.422Z,19.93
2023-04-28T11:06:34.501Z,19.47
2023-04-28T11:09:05.634Z,19.17
2023-04-28T11:11:35.204Z,17.37
2023-04-28T11:14:35.205Z,20.10
2023-04-28T11:17:05.506Z,18.40
2023-04-28T11:19:36.040Z,20.43
2023-04-28T11:22:10.081Z,21.17
2023-04-28T11:24:39.759Z,23.53
2023-04-28T11:27:08.629Z,22.03
2023-04-28T11:29:38.536Z,20.13
2023-04-28T11:32:08.182Z,19.97
2023-04-28T11:34:37.121Z,22.27
2023-04-28T11:37:07.290Z,19.97
2023-04-28T11:39:36.362Z,20.13
2023-04-28T11:42:12.580Z,20.87
2023-04-28T11:44:40.812Z,19.37
2023-04-28T11:47:09.367Z,21.63
2023-04-28T11:49:45.332Z,20.30
2023-04-28T11:52:14.208Z,21.13
2023-04-28T11:54:43.781Z,18.40
2023-04-28T11:57:20.653Z,19.40
2023-04-28T11:59:49.854Z,18.63
2023-04-28T12:02:28.232Z,20.70
2023-04-28T12:04:56.627Z,20.23
2023-04-28T12:07:24.744Z,22.27
2023-04-28T12:10:16.063Z,20.93
2023-04-28T12:12:52.525Z,21.03
2023-04-28T12:15:22.935Z,20.40
2023-04-28T12:17:52.009Z,25.27
2023-04-28T12:20:36.800Z,21.57
2023-04-28T12:23:05.543Z,22.33
2023-04-28T12:25:35.527Z,23.00
2023-04-28T12:28:07.853Z,23.47
2023-04-28T12:30:42.751Z,25.27
2023-04-28T12:33:24.175Z,23.63
2023-04-28T12:35:53.877Z,21.67
2023-04-28T12:38:21.955Z,26.07
2023-04-28T12:40:50.376Z,27.60
2023-04-28T12:43:21.351Z,24.03
2023-04-28T12:45:50.154Z,24.70
2023-04-28T12:48:18.653Z,27.60
2023-04-28T12:50:47.507Z,24.97
2023-04-28T12:53:15.744Z,26.47
2023-04-28T12:55:44.145Z,24.77
2023-04-28T12:58:12.583Z,23.73
2023-04-28T13:00:42.149Z,23.37
2023-04-28T13:03:10.265Z,26.50
2023-04-28T13:05:38.771Z,27.90
2023-04-28T13:08:06.993Z,25.63
2023-04-28T13:10:35.303Z,27.20
2023-04-28T13:13:03.604Z,25.13
2023-04-28T13:15:32.886Z,23.47
2023-04-28T13:18:02.541Z,23.60
2023-04-28T13:20:30.859Z,23.67
2023-04-28T13:22:59.000Z,24.67
2023-04-28T13:25:27.059Z,27.07
2023-04-28T13:27:55.237Z,26.00
2023-04-28T13:30:23.439Z,25.47
2023-04-28T13:32:52.186Z,26.17
2023-04-28T13:35:22.416Z,25.60
2023-04-28T13:37:50.519Z,28.80
2023-04-28T13:40:19.272Z,32.47
2023-04-28T13:42:47.687Z,30.90
2023-04-28T13:45:17.744Z,29.43
2023-04-28T13:47:46.196Z,31.23
2023-04-28T13:50:14.154Z,28.27
2023-04-28T13:52:43.976Z,25.87
2023-04-28T13:55:12.390Z,23.67
2023-04-28T13:57:42.082Z,26.10
2023-04-28T14:00:11.585Z,28.10
2023-04-28T14:02:40.417Z,24.83
2023-04-28T14:05:09.519Z,27.57
2023-04-28T14:07:39.548Z,29.23
2023-04-28T14:10:11.199Z,28.27
2023-04-28T14:12:40.019Z,26.47
2023-04-28T14:15:09.060Z,26.67
2023-04-28T14:17:39.729Z,25.53
2023-04-28T14:20:11.734Z,25.53
2023-04-28T14:22:40.146Z,24.43
2023-04-28T14:25:11.610Z,22.37
2023-04-28T14:27:40.074Z,26.33
2023-04-28T14:30:09.842Z,24.23
2023-04-28T14:32:40.397Z,25.43
2023-04-28T14:35:09.536Z,24.23
2023-04-28T14:37:38.100Z,25.43
2023-04-28T14:40:08.002Z,26.03
2023-04-28T14:42:38.428Z,27.17
2023-04-28T14:45:09.193Z,24.13
2023-04-28T14:47:38.861Z,25.70
2023-04-28T14:50:08.256Z,28.60
2023-04-28T14:52:37.244Z,29.67
2023-04-28T14:55:06.592Z,25.13
2023-04-28T14:57:35.789Z,24.77
2023-04-28T15:00:07.389Z,23.33
2023-04-28T15:02:35.942Z,23.23
2023-04-28T15:05:04.854Z,24.27
2023-04-28T15:07:34.649Z,21.90
2023-04-28T15:10:03.039Z,22.63
2023-04-28T15:12:32.152Z,22.23
2023-04-28T15:15:00.669Z,23.30
2023-04-28T15:17:30.398Z,20.43
2023-04-28T15:19:58.765Z,19.00
2023-04-28T15:22:27.126Z,19.23
2023-04-28T15:24:55.967Z,23.00
2023-04-28T15:27:24.165Z,18.17
2023-04-28T15:29:52.454Z,19.57
2023-04-28T15:32:20.819Z,18.80
2023-04-28T15:34:50.634Z,17.47
2023-04-28T15:37:43.117Z,17.40
2023-04-28T15:40:13.151Z,16.57
2023-04-28T15:42:42.355Z,19.67
2023-04-28T15:45:12.197Z,18.67
2023-04-28T15:47:40.770Z,15.60
2023-04-28T15:50:12.516Z,16.00
2023-04-28T15:52:46.015Z,14.50
2023-04-28T15:55:15.299Z,13.77
2023-04-28T15:57:44.770Z,14.10
2023-04-28T16:00:14.965Z,16.77
2023-04-28T16:02:44.033Z,15.27
2023-04-28T16:05:14.297Z,17.63
2023-04-28T16:07:43.125Z,14.93
2023-04-28T16:10:12.595Z,11.03
2023-04-28T16:12:42.018Z,11.37
2023-04-28T16:15:13.007Z,10.27
2023-04-28T16:17:42.616Z,9.67
2023-04-28T16:20:12.441Z,12.97
2023-04-28T16:22:42.878Z,12.63
2023-04-28T16:25:12.339Z,13.43
2023-04-28T16:27:41.857Z,12.73
2023-04-28T16:30:10.945Z,12.47
2023-04-28T16:32:41.092Z,11.83
2023-04-28T16:35:15.168Z,12.30
2023-04-28T16:37:45.512Z,13.23
2023-04-28T16:40:16.041Z,15.73
2023-04-28T16:42:45.642Z,14.93
2023-04-28T16:45:14.354Z,14.57
2023-04-28T16:47:44.089Z,12.93
2023-04-28T16:50:15.973Z,12.93
2023-04-28T16:52:46.267Z,13.13
2023-04-28T16:55:14.839Z,13.63
2023-04-28T16:57:43.133Z,12.17
2023-04-28T17:00:12.550Z,14.40
2023-04-28T17:02:40.829Z,12.43
2023-04-28T17:05:10.085Z,11.67
2023-04-28T17:07:38.074Z,15.97
2023-04-28T17:10:09.136Z,11.33
2023-04-28T17:12:37.417Z,13.77
2023-04-28T17:15:06.969Z,16.23
2023-04-28T17:17:35.299Z,15.17
2023-04-28T17:20:03.597Z,11.87
2023-04-28T17:22:33.287Z,11.37
2023-04-28T17:25:01.637Z,13.50
2023-04-28T17:27:31.224Z,13.13
2023-04-28T17:30:00.498Z,11.23
2023-04-28T17:32:28.780Z,10.97
2023-04-28T17:34:56.841Z,12.50
2023-04-28T17:37:24.874Z,12.80
2023-04-28T17:39:53.399Z,11.87
2023-04-28T17:42:22.015Z,12.33
2023-04-28T17:44:52.164Z,12.30
2023-04-28T17:47:20.517Z,11.10
2023-04-28T17:49:48.838Z,12.10
2023-04-28T17:52:17.102Z,10.90
2023-04-28T17:54:45.222Z,11.70
2023-04-28T17:57:14.596Z,10.97
2023-04-28T17:59:44.806Z,11.27
2023-04-28T18:02:14.798Z,11.90
2023-04-28T18:04:43.470Z,11.23
2023-04-28T18:07:11.942Z,11.27
2023-04-28T18:09:41.988Z,11.47
2023-04-28T18:12:10.554Z,12.80
2023-04-28T18:14:41.471Z,12.90
2023-04-28T18:17:09.845Z,15.83
2023-04-28T18:19:39.858Z,15.90
2023-04-28T18:22:10.923Z,13.20
2023-04-28T18:24:39.896Z,12.93
2023-04-28T18:27:08.147Z,10.90
2023-04-28T18:29:36.820Z,13.10
2023-04-28T18:32:04.962Z,11.00
2023-04-28T18:34:33.192Z,11.47
2023-04-28T18:37:03.161Z,22.03
2023-04-28T18:39:32.041Z,29.07
2023-04-28T18:42:00.491Z,17.90
2023-04-28T18:44:29.209Z,17.87
2023-04-28T18:46:57.682Z,17.90
2023-04-28T18:49:27.165Z,16.83
2023-04-28T18:51:56.083Z,14.07
2023-04-28T18:54:27.481Z,15.77
2023-04-28T18:56:57.621Z,14.93
2023-04-28T18:59:27.332Z,14.50
2023-04-28T19:01:55.679Z,13.97
2023-04-28T19:04:24.406Z,13.30
2023-04-28T19:06:52.488Z,14.00
2023-04-28T19:09:21.093Z,16.20
2023-04-28T19:11:50.690Z,15.27
2023-04-28T19:14:19.799Z,15.33
2023-04-28T19:16:47.945Z,18.37
2023-04-28T19:19:16.412Z,19.97
2023-04-28T19:21:45.521Z,19.00
2023-04-28T19:24:14.143Z,21.27
2023-04-28T19:26:42.366Z,19.87
2023-04-28T19:29:17.327Z,19.70
2023-04-28T19:31:46.060Z,20.63
2023-04-28T19:34:14.418Z,19.17
2023-04-28T19:36:42.805Z,20.00
2023-04-28T19:39:10.875Z,20.20
2023-04-28T19:41:38.974Z,16.70
2023-04-28T19:44:07.329Z,16.87
2023-04-28T19:46:37.298Z,15.40
2023-04-28T19:49:05.482Z,16.30
2023-04-28T19:51:33.483Z,13.43
2023-04-28T19:54:03.147Z,13.60
2023-04-28T19:56:32.974Z,15.97
2023-04-28T19:59:01.807Z,16.20
2023-04-28T20:01:30.301Z,17.67
2023-04-28T20:04:00.681Z,11.47
2023-04-28T20:06:32.035Z,11.37
2023-04-28T20:09:00.496Z,7.90
2023-04-28T20:11:28.847Z,8.40
2023-04-28T20:13:57.473Z,8.60
2023-04-28T20:16:26.688Z,6.30
2023-04-28T20:18:55.135Z,5.67
2023-04-28T20:21:25.124Z,5.37
2023-04-28T20:23:53.490Z,5.30
2023-04-28T20:26:23.035Z,7.30
2023-04-28T20:28:51.886Z,3.87
2023-04-28T20:31:20.116Z,5.23
2023-04-28T20:33:48.323Z,4.17
2023-04-28T20:36:16.475Z,3.97
2023-04-28T20:38:46.409Z,5.60
2023-04-28T20:41:14.562Z,5.00
2023-04-28T20:43:42.901Z,4.97
2023-04-28T20:46:13.842Z,6.07
2023-04-28T20:48:43.255Z,5.90
2023-04-28T20:51:11.695Z,5.47
2023-04-28T20:53:40.010Z,9.00
2023-04-28T20:56:09.872Z,5.57
2023-04-28T20:58:38.058Z,8.33
2023-04-28T21:01:06.255Z,7.23
2023-04-28T21:03:35.877Z,7.70
2023-04-28T21:06:04.225Z,7.63
2023-04-28T21:08:32.537Z,9.03
2023-04-28T21:11:00.929Z,7.60
2023-04-28T21:13:30.673Z,5.33
2023-04-28T21:15:59.347Z,5.13
2023-04-28T21:18:27.954Z,5.43
2023-04-28T21:20:56.721Z,5.30
2023-04-28T21:23:25.557Z,4.87
2023-04-28T21:25:53.692Z,4.87
2023-04-28T21:28:22.088Z,5.27
2023-04-28T21:30:54.752Z,4.60
2023-04-28T21:33:23.790Z,4.90
2023-04-28T21:35:55.042Z,5.50
2023-04-28T21:38:23.293Z,5.60
2023-04-28T21:40:52.865Z,4.53
2023-04-28T21:43:22.500Z,5.50
2023-04-28T21:45:52.456Z,5.77
2023-04-28T21:48:22.613Z,4.97
2023-04-28T21:50:51.094Z,4.20
2023-04-28T21:53:19.270Z,4.50
2023-04-28T21:55:47.574Z,4.20
2023-04-28T21:58:15.979Z,6.67
2023-04-28T22:00:46.677Z,4.53
2023-04-28T22:03:16.021Z,4.00
2023-04-28T22:05:46.463Z,4.23
2023-04-28T22:08:15.823Z,4.20
2023-04-28T22:10:45.803Z,6.50
2023-04-28T22:13:14.437Z,5.27
2023-04-28T22:15:44.287Z,5.73
2023-04-28T22:18:12.960Z,4.53
2023-04-28T22:20:41.569Z,5.03
2023-04-28T22:23:11.164Z,4.43
2023-04-28T22:25:39.767Z,4.63
2023-04-28T22:28:08.196Z,4.33
2023-04-28T22:30:36.434Z,4.40
2023-04-28T22:33:05.245Z,4.17
2023-04-28T22:35:33.371Z,4.50
2023-04-28T22:38:01.926Z,7.87
2023-04-28T22:40:33.579Z,9.30
2023-04-28T22:43:01.934Z,4.70
2023-04-28T22:45:30.118Z,5.93
2023-04-28T22:47:58.461Z,6.23
2023-04-28T22:50:28.880Z,5.23
2023-04-28T22:52:57.272Z,5.00
2023-04-28T22:55:26.933Z,4.43
2023-04-28T22:57:56.529Z,4.40
2023-04-28T23:00:24.752Z,4.83
2023-04-28T23:02:53.475Z,4.30
2023-04-28T23:05:21.678Z,4.47
2023-04-28T23:07:49.747Z,4.30
2023-04-28T23:10:19.187Z,4.37
2023-04-28T23:12:47.287Z,4.83
2023-04-28T23:15:17.303Z,4.13
2023-04-28T23:17:45.568Z,5.47
2023-04-28T23:20:14.373Z,4.30
2023-04-28T23:22:43.003Z,4.37
2023-04-28T23:25:11.713Z,4.73
2023-04-28T23:27:41.445Z,4.87
2023-04-28T23:30:12.156Z,5.63
2023-04-28T23:32:42.574Z,4.30
2023-04-28T23:35:11.327Z,3.80
2023-04-28T23:37:39.381Z,4.53
2023-04-28T23:40:10.029Z,5.73
2023-04-28T23:42:41.617Z,4.17
2023-04-28T23:45:11.362Z,3.50
2023-04-28T23:47:40.592Z,3.73
2023-04-28T23:50:11.983Z,3.57
2023-04-28T23:52:40.560Z,3.40
2023-04-28T23:55:10.614Z,4.30
2023-04-28T23:57:39.163Z,5.97
